KHCD

Hutchinson Municipal-Butler Field Airport

Hutchinson, Minnesota, USA
METAR KHCD 211536Z AUTO 13012KT 10SM SCT045 BKN055 OVC070 M14/M19 A3024 RMK AO2 T11421194
Observed Flight Rules
Jan-21 @ 15:36 UTC (20 minutes ago) Visual Flight Rules
Wind Visibility Clouds
130° at 12 knots 10 miles
  • Scattered at 4,500' AGL
  • Broken at 5,500' AGL
  • Overcast at 7,000' AGL
Temperatures Readings
Current -14°C / 7°F
Dewpoint -19°C / -2°F
Humidity 66%
Altimeter 30.24" Hg
Pressure 1024.02 hPa
Elevation 323
METAR KHCD 211536Z AUTO 13012KT 10SM SCT045 BKN055 OVC070 M14/M19 A3024 RMK AO2 T11421194
Observed Flight Rules
Jan-21 @ 15:36 UTC
(20 minutes ago)
VFR
Wind Visibility
130° at 12 knots 10 miles
Clouds
  • Scattered at 4,500' AGL
  • Broken at 5,500' AGL
  • Overcast at 7,000' AGL
Temperature Dewpoint
-14°C / 7°F -19°C / -2°F
Humidity Altimeter Pressure
66% 30.24" Hg 1024.02 hPa